sensor_id;sensor_type;location;lat;lon;timestamp;temperature;humidity
46319;DHT22;32042;50.916;2.926;2023-05-10T00:00:44;12.40;99.90
46319;DHT22;32042;50.916;2.926;2023-05-10T00:03:10;12.40;99.90
46319;DHT22;32042;50.916;2.926;2023-05-10T00:05:35;12.40;99.90
46319;DHT22;32042;50.916;2.926;2023-05-10T00:08:01;12.40;99.90
46319;DHT22;32042;50.916;2.926;2023-05-10T00:10:28;12.40;99.90
46319;DHT22;32042;50.916;2.926;2023-05-10T00:12:54;12.40;99.90
46319;DHT22;32042;50.916;2.926;2023-05-10T00:15:20;12.40;99.90
46319;DHT22;32042;50.916;2.926;2023-05-10T00:17:45;12.40;99.90
46319;DHT22;32042;50.916;2.926;2023-05-10T00:20:11;12.40;99.90
46319;DHT22;32042;50.916;2.926;2023-05-10T00:22:37;12.40;99.90
46319;DHT22;32042;50.916;2.926;2023-05-10T00:25:03;12.40;99.90
46319;DHT22;32042;50.916;2.926;2023-05-10T00:27:29;12.40;99.90
46319;DHT22;32042;50.916;2.926;2023-05-10T00:29:55;12.40;99.90
46319;DHT22;32042;50.916;2.926;2023-05-10T00:32:20;12.40;99.90
46319;DHT22;32042;50.916;2.926;2023-05-10T00:34:46;12.40;99.90
46319;DHT22;32042;50.916;2.926;2023-05-10T00:37:12;12.40;99.90
46319;DHT22;32042;50.916;2.926;2023-05-10T00:39:37;12.40;99.90
46319;DHT22;32042;50.916;2.926;2023-05-10T00:42:03;12.40;99.90
46319;DHT22;32042;50.916;2.926;2023-05-10T00:44:29;12.40;99.90
46319;DHT22;32042;50.916;2.926;2023-05-10T00:46:57;12.40;99.90
46319;DHT22;32042;50.916;2.926;2023-05-10T00:49:23;12.40;99.90
46319;DHT22;32042;50.916;2.926;2023-05-10T00:51:49;12.40;99.90
46319;DHT22;32042;50.916;2.926;2023-05-10T00:54:15;12.50;99.90
46319;DHT22;32042;50.916;2.926;2023-05-10T00:56:41;12.40;99.90
46319;DHT22;32042;50.916;2.926;2023-05-10T00:59:09;12.40;99.90
46319;DHT22;32042;50.916;2.926;2023-05-10T01:01:35;12.40;99.90
46319;DHT22;32042;50.916;2.926;2023-05-10T01:04:02;12.40;99.90
46319;DHT22;32042;50.916;2.926;2023-05-10T01:06:28;12.40;99.90
46319;DHT22;32042;50.916;2.926;2023-05-10T01:08:54;12.40;99.90
46319;DHT22;32042;50.916;2.926;2023-05-10T01:11:21;12.40;99.90
46319;DHT22;32042;50.916;2.926;2023-05-10T01:13:52;12.40;99.90
46319;DHT22;32042;50.916;2.926;2023-05-10T01:16:20;12.40;99.90
46319;DHT22;32042;50.916;2.926;2023-05-10T01:18:45;12.40;99.90
46319;DHT22;32042;50.916;2.926;2023-05-10T01:29:17;12.40;99.90
46319;DHT22;32042;50.916;2.926;2023-05-10T01:32:08;12.40;99.90
46319;DHT22;32042;50.916;2.926;2023-05-10T01:37:17;12.40;99.90
46319;DHT22;32042;50.916;2.926;2023-05-10T01:39:53;12.40;99.90
46319;DHT22;32042;50.916;2.926;2023-05-10T01:42:25;12.40;99.90
46319;DHT22;32042;50.916;2.926;2023-05-10T01:47:46;12.40;99.90
46319;DHT22;32042;50.916;2.926;2023-05-10T01:50:18;12.40;99.90
46319;DHT22;32042;50.916;2.926;2023-05-10T01:52:51;12.40;99.90
46319;DHT22;32042;50.916;2.926;2023-05-10T01:55:21;12.40;99.90
46319;DHT22;32042;50.916;2.926;2023-05-10T01:57:55;12.40;99.90
46319;DHT22;32042;50.916;2.926;2023-05-10T02:00:24;12.40;99.90
46319;DHT22;32042;50.916;2.926;2023-05-10T02:02:50;12.30;99.90
46319;DHT22;32042;50.916;2.926;2023-05-10T02:05:18;12.40;99.90
46319;DHT22;32042;50.916;2.926;2023-05-10T02:07:45;12.40;99.90
46319;DHT22;32042;50.916;2.926;2023-05-10T02:10:11;12.40;99.90
46319;DHT22;32042;50.916;2.926;2023-05-10T02:12:42;12.30;99.90
46319;DHT22;32042;50.916;2.926;2023-05-10T02:15:10;12.30;99.90
46319;DHT22;32042;50.916;2.926;2023-05-10T02:17:37;12.30;99.90
46319;DHT22;32042;50.916;2.926;2023-05-10T02:20:05;12.20;99.90
46319;DHT22;32042;50.916;2.926;2023-05-10T02:22:32;12.30;99.90
46319;DHT22;32042;50.916;2.926;2023-05-10T02:24:59;12.20;99.90
46319;DHT22;32042;50.916;2.926;2023-05-10T02:27:27;12.10;99.90
46319;DHT22;32042;50.916;2.926;2023-05-10T02:29:54;12.10;99.90
46319;DHT22;32042;50.916;2.926;2023-05-10T02:32:22;12.10;99.90
46319;DHT22;32042;50.916;2.926;2023-05-10T02:34:49;12.00;99.90
46319;DHT22;32042;50.916;2.926;2023-05-10T02:37:22;12.00;99.90
46319;DHT22;32042;50.916;2.926;2023-05-10T02:39:54;12.00;99.90
46319;DHT22;32042;50.916;2.926;2023-05-10T02:42:26;11.90;99.90
46319;DHT22;32042;50.916;2.926;2023-05-10T02:45:00;11.90;99.90
46319;DHT22;32042;50.916;2.926;2023-05-10T02:47:28;12.00;99.90
46319;DHT22;32042;50.916;2.926;2023-05-10T02:49:56;12.00;99.90
46319;DHT22;32042;50.916;2.926;2023-05-10T02:52:29;12.00;99.90
46319;DHT22;32042;50.916;2.926;2023-05-10T02:55:00;11.90;99.90
46319;DHT22;32042;50.916;2.926;2023-05-10T02:57:28;12.00;99.90
46319;DHT22;32042;50.916;2.926;2023-05-10T02:59:55;12.00;99.90
46319;DHT22;32042;50.916;2.926;2023-05-10T03:02:21;12.00;99.90
46319;DHT22;32042;50.916;2.926;2023-05-10T03:04:47;12.00;99.90
46319;DHT22;32042;50.916;2.926;2023-05-10T03:07:13;12.00;99.90
46319;DHT22;32042;50.916;2.926;2023-05-10T03:09:39;11.90;99.90
46319;DHT22;32042;50.916;2.926;2023-05-10T03:12:23;11.90;99.90
46319;DHT22;32042;50.916;2.926;2023-05-10T03:15:07;11.90;99.90
46319;DHT22;32042;50.916;2.926;2023-05-10T03:18:01;11.90;99.90
46319;DHT22;32042;50.916;2.926;2023-05-10T03:20:41;11.90;99.90
46319;DHT22;32042;50.916;2.926;2023-05-10T03:23:22;11.90;99.90
46319;DHT22;32042;50.916;2.926;2023-05-10T03:25:52;11.90;99.90
46319;DHT22;32042;50.916;2.926;2023-05-10T03:28:18;11.80;99.90
46319;DHT22;32042;50.916;2.926;2023-05-10T03:30:46;11.80;99.90
46319;DHT22;32042;50.916;2.926;2023-05-10T03:33:12;11.90;99.90
46319;DHT22;32042;50.916;2.926;2023-05-10T03:35:39;11.80;99.90
46319;DHT22;32042;50.916;2.926;2023-05-10T03:38:05;11.90;99.90
46319;DHT22;32042;50.916;2.926;2023-05-10T03:40:30;11.80;99.90
46319;DHT22;32042;50.916;2.926;2023-05-10T03:43:00;11.80;99.90
46319;DHT22;32042;50.916;2.926;2023-05-10T03:45:26;11.80;99.90
46319;DHT22;32042;50.916;2.926;2023-05-10T03:47:52;11.80;99.90
46319;DHT22;32042;50.916;2.926;2023-05-10T03:50:18;11.80;99.90
46319;DHT22;32042;50.916;2.926;2023-05-10T03:52:44;11.90;99.90
46319;DHT22;32042;50.916;2.926;2023-05-10T03:55:10;11.90;99.90
46319;DHT22;32042;50.916;2.926;2023-05-10T03:57:36;11.90;99.90
46319;DHT22;32042;50.916;2.926;2023-05-10T04:00:03;11.80;99.90
46319;DHT22;32042;50.916;2.926;2023-05-10T04:02:28;11.90;99.90
46319;DHT22;32042;50.916;2.926;2023-05-10T04:04:55;11.90;99.90
46319;DHT22;32042;50.916;2.926;2023-05-10T04:07:21;11.80;99.90
46319;DHT22;32042;50.916;2.926;2023-05-10T04:09:47;11.90;99.90
46319;DHT22;32042;50.916;2.926;2023-05-10T04:12:13;11.80;99.90
46319;DHT22;32042;50.916;2.926;2023-05-10T04:14:38;11.80;99.90
46319;DHT22;32042;50.916;2.926;2023-05-10T04:17:04;11.80;99.90
46319;DHT22;32042;50.916;2.926;2023-05-10T04:19:31;11.80;99.90
46319;DHT22;32042;50.916;2.926;2023-05-10T04:21:57;11.80;99.90
46319;DHT22;32042;50.916;2.926;2023-05-10T04:24:23;11.80;99.90
46319;DHT22;32042;50.916;2.926;2023-05-10T04:26:49;11.80;99.90
46319;DHT22;32042;50.916;2.926;2023-05-10T04:29:14;11.80;99.90
46319;DHT22;32042;50.916;2.926;2023-05-10T04:31:40;11.80;99.90
46319;DHT22;32042;50.916;2.926;2023-05-10T04:34:06;11.80;99.90
46319;DHT22;32042;50.916;2.926;2023-05-10T04:36:32;11.80;99.90
46319;DHT22;32042;50.916;2.926;2023-05-10T04:39:02;11.80;99.90
46319;DHT22;32042;50.916;2.926;2023-05-10T04:41:28;11.80;99.90
46319;DHT22;32042;50.916;2.926;2023-05-10T04:43:54;11.80;99.90
46319;DHT22;32042;50.916;2.926;2023-05-10T04:46:20;11.80;99.90
46319;DHT22;32042;50.916;2.926;2023-05-10T04:48:46;11.90;99.90
46319;DHT22;32042;50.916;2.926;2023-05-10T04:51:12;11.90;99.90
46319;DHT22;32042;50.916;2.926;2023-05-10T04:53:38;11.90;99.90
46319;DHT22;32042;50.916;2.926;2023-05-10T04:56:03;11.90;99.90
46319;DHT22;32042;50.916;2.926;2023-05-10T04:58:29;11.80;99.90
46319;DHT22;32042;50.916;2.926;2023-05-10T05:00:55;11.90;99.90
46319;DHT22;32042;50.916;2.926;2023-05-10T05:03:21;11.90;99.90
46319;DHT22;32042;50.916;2.926;2023-05-10T05:05:47;11.90;99.90
46319;DHT22;32042;50.916;2.926;2023-05-10T05:08:13;11.90;99.90
46319;DHT22;32042;50.916;2.926;2023-05-10T05:10:39;11.90;99.90
46319;DHT22;32042;50.916;2.926;2023-05-10T05:13:05;11.90;99.90
46319;DHT22;32042;50.916;2.926;2023-05-10T05:15:31;11.90;99.90
46319;DHT22;32042;50.916;2.926;2023-05-10T05:17:57;11.90;99.90
46319;DHT22;32042;50.916;2.926;2023-05-10T05:20:22;11.90;99.90
46319;DHT22;32042;50.916;2.926;2023-05-10T05:22:48;11.90;99.90
46319;DHT22;32042;50.916;2.926;2023-05-10T05:25:14;12.00;99.90
46319;DHT22;32042;50.916;2.926;2023-05-10T05:27:40;11.90;99.90
46319;DHT22;32042;50.916;2.926;2023-05-10T05:30:07;12.00;99.90
46319;DHT22;32042;50.916;2.926;2023-05-10T05:32:33;12.00;99.90
46319;DHT22;32042;50.916;2.926;2023-05-10T05:34:59;12.00;99.90
46319;DHT22;32042;50.916;2.926;2023-05-10T05:37:25;12.00;99.90
46319;DHT22;32042;50.916;2.926;2023-05-10T05:39:50;12.00;99.90
46319;DHT22;32042;50.916;2.926;2023-05-10T05:42:16;12.10;99.90
46319;DHT22;32042;50.916;2.926;2023-05-10T05:44:44;12.10;99.90
46319;DHT22;32042;50.916;2.926;2023-05-10T05:47:09;12.10;99.90
46319;DHT22;32042;50.916;2.926;2023-05-10T05:49:36;12.20;99.90
46319;DHT22;32042;50.916;2.926;2023-05-10T05:52:02;12.20;99.90
46319;DHT22;32042;50.916;2.926;2023-05-10T05:54:29;12.20;99.90
46319;DHT22;32042;50.916;2.926;2023-05-10T05:56:59;12.20;99.90
46319;DHT22;32042;50.916;2.926;2023-05-10T05:59:25;12.20;99.90
46319;DHT22;32042;50.916;2.926;2023-05-10T06:01:51;12.20;99.90
46319;DHT22;32042;50.916;2.926;2023-05-10T06:04:17;12.20;99.90
46319;DHT22;32042;50.916;2.926;2023-05-10T06:06:43;12.20;99.90
46319;DHT22;32042;50.916;2.926;2023-05-10T06:09:09;12.20;99.90
46319;DHT22;32042;50.916;2.926;2023-05-10T06:11:35;12.30;99.90
46319;DHT22;32042;50.916;2.926;2023-05-10T06:14:02;12.20;99.90
46319;DHT22;32042;50.916;2.926;2023-05-10T06:16:30;12.20;99.90
46319;DHT22;32042;50.916;2.926;2023-05-10T06:18:55;12.20;99.90
46319;DHT22;32042;50.916;2.926;2023-05-10T06:21:21;12.20;99.90
46319;DHT22;32042;50.916;2.926;2023-05-10T06:23:47;12.40;99.90
46319;DHT22;32042;50.916;2.926;2023-05-10T06:26:13;12.50;99.90
46319;DHT22;32042;50.916;2.926;2023-05-10T06:28:39;12.60;99.90
46319;DHT22;32042;50.916;2.926;2023-05-10T06:31:06;12.70;99.90
46319;DHT22;32042;50.916;2.926;2023-05-10T06:33:32;12.70;99.90
46319;DHT22;32042;50.916;2.926;2023-05-10T06:35:58;12.80;99.90
46319;DHT22;32042;50.916;2.926;2023-05-10T06:38:24;12.90;99.90
46319;DHT22;32042;50.916;2.926;2023-05-10T06:40:49;13.00;99.90
46319;DHT22;32042;50.916;2.926;2023-05-10T06:43:16;13.10;99.90
46319;DHT22;32042;50.916;2.926;2023-05-10T06:45:41;13.10;99.90
46319;DHT22;32042;50.916;2.926;2023-05-10T06:48:07;13.10;99.90
46319;DHT22;32042;50.916;2.926;2023-05-10T06:50:33;13.10;99.90
46319;DHT22;32042;50.916;2.926;2023-05-10T06:53:00;13.10;99.90
46319;DHT22;32042;50.916;2.926;2023-05-10T06:55:26;13.10;99.90
46319;DHT22;32042;50.916;2.926;2023-05-10T06:57:52;13.20;99.90
46319;DHT22;32042;50.916;2.926;2023-05-10T07:00:18;13.20;99.90
46319;DHT22;32042;50.916;2.926;2023-05-10T07:02:44;13.30;99.90
46319;DHT22;32042;50.916;2.926;2023-05-10T07:05:10;13.30;99.90
46319;DHT22;32042;50.916;2.926;2023-05-10T07:07:37;13.30;99.90
46319;DHT22;32042;50.916;2.926;2023-05-10T07:10:03;13.30;99.90
46319;DHT22;32042;50.916;2.926;2023-05-10T07:12:29;13.30;99.90
46319;DHT22;32042;50.916;2.926;2023-05-10T07:14:54;13.30;99.90
46319;DHT22;32042;50.916;2.926;2023-05-10T07:17:20;13.40;99.90
46319;DHT22;32042;50.916;2.926;2023-05-10T07:19:46;13.40;99.90
46319;DHT22;32042;50.916;2.926;2023-05-10T07:22:12;13.40;99.90
46319;DHT22;32042;50.916;2.926;2023-05-10T07:24:38;13.40;99.90
46319;DHT22;32042;50.916;2.926;2023-05-10T07:27:04;13.40;99.90
46319;DHT22;32042;50.916;2.926;2023-05-10T07:29:30;13.50;99.90
46319;DHT22;32042;50.916;2.926;2023-05-10T07:31:56;13.50;99.90
46319;DHT22;32042;50.916;2.926;2023-05-10T07:34:22;13.50;99.90
46319;DHT22;32042;50.916;2.926;2023-05-10T07:36:47;13.40;99.90
46319;DHT22;32042;50.916;2.926;2023-05-10T07:39:13;13.50;99.90
46319;DHT22;32042;50.916;2.926;2023-05-10T07:41:39;13.50;99.90
46319;DHT22;32042;50.916;2.926;2023-05-10T07:44:05;13.60;99.90
46319;DHT22;32042;50.916;2.926;2023-05-10T07:46:31;13.60;99.90
46319;DHT22;32042;50.916;2.926;2023-05-10T07:49:04;13.60;99.90
46319;DHT22;32042;50.916;2.926;2023-05-10T07:51:30;13.70;99.90
46319;DHT22;32042;50.916;2.926;2023-05-10T07:53:57;13.80;99.90
46319;DHT22;32042;50.916;2.926;2023-05-10T07:56:27;13.80;99.90
46319;DHT22;32042;50.916;2.926;2023-05-10T07:58:55;13.80;99.90
46319;DHT22;32042;50.916;2.926;2023-05-10T08:01:22;13.90;99.90
46319;DHT22;32042;50.916;2.926;2023-05-10T08:03:48;13.90;99.90
46319;DHT22;32042;50.916;2.926;2023-05-10T08:06:15;14.00;99.90
46319;DHT22;32042;50.916;2.926;2023-05-10T08:08:41;14.00;99.90
46319;DHT22;32042;50.916;2.926;2023-05-10T08:11:07;14.10;99.90
46319;DHT22;32042;50.916;2.926;2023-05-10T08:13:33;14.10;99.90
46319;DHT22;32042;50.916;2.926;2023-05-10T08:15:58;14.20;99.90
46319;DHT22;32042;50.916;2.926;2023-05-10T08:18:24;14.20;99.90
46319;DHT22;32042;50.916;2.926;2023-05-10T08:20:50;14.20;99.90
46319;DHT22;32042;50.916;2.926;2023-05-10T08:23:15;14.20;99.90
46319;DHT22;32042;50.916;2.926;2023-05-10T08:25:41;14.20;99.90
46319;DHT22;32042;50.916;2.926;2023-05-10T08:28:07;14.10;99.90
46319;DHT22;32042;50.916;2.926;2023-05-10T08:30:32;14.10;99.90
46319;DHT22;32042;50.916;2.926;2023-05-10T08:32:58;14.00;99.90
46319;DHT22;32042;50.916;2.926;2023-05-10T08:35:24;13.90;99.90
46319;DHT22;32042;50.916;2.926;2023-05-10T08:37:50;13.90;99.90
46319;DHT22;32042;50.916;2.926;2023-05-10T08:40:19;13.80;99.90
46319;DHT22;32042;50.916;2.926;2023-05-10T08:43:05;13.70;99.90
46319;DHT22;32042;50.916;2.926;2023-05-10T08:45:41;13.70;99.90
46319;DHT22;32042;50.916;2.926;2023-05-10T08:48:09;13.70;99.90
46319;DHT22;32042;50.916;2.926;2023-05-10T08:50:45;13.60;99.90
46319;DHT22;32042;50.916;2.926;2023-05-10T08:53:13;13.60;99.90
46319;DHT22;32042;50.916;2.926;2023-05-10T08:55:39;13.60;99.90
46319;DHT22;32042;50.916;2.926;2023-05-10T08:58:07;13.60;99.90
46319;DHT22;32042;50.916;2.926;2023-05-10T09:00:34;13.60;99.90
46319;DHT22;32042;50.916;2.926;2023-05-10T09:03:03;13.70;99.90
46319;DHT22;32042;50.916;2.926;2023-05-10T09:05:29;13.80;99.90
46319;DHT22;32042;50.916;2.926;2023-05-10T09:07:55;13.90;99.90
46319;DHT22;32042;50.916;2.926;2023-05-10T09:10:21;14.00;99.90
46319;DHT22;32042;50.916;2.926;2023-05-10T09:12:48;14.10;99.90
46319;DHT22;32042;50.916;2.926;2023-05-10T09:15:17;14.20;99.90
46319;DHT22;32042;50.916;2.926;2023-05-10T09:17:45;14.30;99.90
46319;DHT22;32042;50.916;2.926;2023-05-10T09:20:11;14.40;99.90
46319;DHT22;32042;50.916;2.926;2023-05-10T09:22:37;14.50;99.90
46319;DHT22;32042;50.916;2.926;2023-05-10T09:25:12;14.70;99.90
46319;DHT22;32042;50.916;2.926;2023-05-10T09:27:40;14.70;99.90
46319;DHT22;32042;50.916;2.926;2023-05-10T09:30:07;14.60;99.90
46319;DHT22;32042;50.916;2.926;2023-05-10T09:32:44;14.60;99.90
46319;DHT22;32042;50.916;2.926;2023-05-10T09:35:16;14.50;99.90
46319;DHT22;32042;50.916;2.926;2023-05-10T09:37:43;14.60;99.90
46319;DHT22;32042;50.916;2.926;2023-05-10T09:40:29;14.70;99.90
46319;DHT22;32042;50.916;2.926;2023-05-10T09:43:02;14.80;99.90
46319;DHT22;32042;50.916;2.926;2023-05-10T09:45:31;14.90;99.90
46319;DHT22;32042;50.916;2.926;2023-05-10T09:47:58;14.90;99.90
46319;DHT22;32042;50.916;2.926;2023-05-10T09:50:25;15.00;99.90
46319;DHT22;32042;50.916;2.926;2023-05-10T09:52:56;15.00;99.90
46319;DHT22;32042;50.916;2.926;2023-05-10T09:55:39;15.10;99.90
46319;DHT22;32042;50.916;2.926;2023-05-10T09:58:06;15.10;99.90
46319;DHT22;32042;50.916;2.926;2023-05-10T10:00:54;15.20;99.90
46319;DHT22;32042;50.916;2.926;2023-05-10T10:03:20;15.30;99.90
46319;DHT22;32042;50.916;2.926;2023-05-10T10:05:47;15.40;99.90
46319;DHT22;32042;50.916;2.926;2023-05-10T10:08:14;15.60;99.90
46319;DHT22;32042;50.916;2.926;2023-05-10T10:10:41;15.80;99.90
46319;DHT22;32042;50.916;2.926;2023-05-10T10:13:07;15.90;99.90
46319;DHT22;32042;50.916;2.926;2023-05-10T10:15:34;16.00;99.90
46319;DHT22;32042;50.916;2.926;2023-05-10T10:18:00;16.20;99.90
46319;DHT22;32042;50.916;2.926;2023-05-10T10:20:27;16.30;99.90
46319;DHT22;32042;50.916;2.926;2023-05-10T10:22:53;16.40;99.90
46319;DHT22;32042;50.916;2.926;2023-05-10T10:25:20;16.60;99.90
46319;DHT22;32042;50.916;2.926;2023-05-10T10:35:52;17.10;99.90
46319;DHT22;32042;50.916;2.926;2023-05-10T10:38:18;17.00;99.90
46319;DHT22;32042;50.916;2.926;2023-05-10T10:40:44;16.90;99.90
46319;DHT22;32042;50.916;2.926;2023-05-10T10:43:28;17.00;99.90
46319;DHT22;32042;50.916;2.926;2023-05-10T10:46:16;17.00;99.90
46319;DHT22;32042;50.916;2.926;2023-05-10T10:48:51;17.00;99.90
46319;DHT22;32042;50.916;2.926;2023-05-10T10:51:37;17.10;99.90
46319;DHT22;32042;50.916;2.926;2023-05-10T10:54:12;17.10;99.90
46319;DHT22;32042;50.916;2.926;2023-05-10T10:56:38;17.20;99.90
46319;DHT22;32042;50.916;2.926;2023-05-10T10:59:04;17.20;99.90
46319;DHT22;32042;50.916;2.926;2023-05-10T11:01:36;17.00;99.90
46319;DHT22;32042;50.916;2.926;2023-05-10T11:09:06;17.10;99.90
46319;DHT22;32042;50.916;2.926;2023-05-10T11:11:32;17.10;99.90
46319;DHT22;32042;50.916;2.926;2023-05-10T11:14:06;17.20;99.90
46319;DHT22;32042;50.916;2.926;2023-05-10T11:16:42;17.30;99.90
46319;DHT22;32042;50.916;2.926;2023-05-10T11:19:11;17.50;99.90
46319;DHT22;32042;50.916;2.926;2023-05-10T11:21:51;17.60;99.90
46319;DHT22;32042;50.916;2.926;2023-05-10T11:24:19;17.70;99.90
46319;DHT22;32042;50.916;2.926;2023-05-10T11:26:45;17.80;99.90
46319;DHT22;32042;50.916;2.926;2023-05-10T11:29:13;17.70;99.90
46319;DHT22;32042;50.916;2.926;2023-05-10T11:31:45;17.70;99.90
46319;DHT22;32042;50.916;2.926;2023-05-10T11:34:26;17.80;99.90
46319;DHT22;32042;50.916;2.926;2023-05-10T11:36:53;18.00;99.90
46319;DHT22;32042;50.916;2.926;2023-05-10T11:39:20;18.10;99.90
46319;DHT22;32042;50.916;2.926;2023-05-10T11:41:49;18.10;99.90
46319;DHT22;32042;50.916;2.926;2023-05-10T11:44:14;17.90;99.90
46319;DHT22;32042;50.916;2.926;2023-05-10T11:46:40;18.10;99.90
46319;DHT22;32042;50.916;2.926;2023-05-10T11:49:07;18.20;99.90
46319;DHT22;32042;50.916;2.926;2023-05-10T11:51:36;18.10;99.90
46319;DHT22;32042;50.916;2.926;2023-05-10T11:54:07;18.20;99.90
46319;DHT22;32042;50.916;2.926;2023-05-10T11:56:34;18.40;99.90
46319;DHT22;32042;50.916;2.926;2023-05-10T11:59:00;18.30;99.90
46319;DHT22;32042;50.916;2.926;2023-05-10T12:01:28;18.20;99.90
46319;DHT22;32042;50.916;2.926;2023-05-10T12:03:55;18.30;99.90
46319;DHT22;32042;50.916;2.926;2023-05-10T12:06:27;18.20;99.90
46319;DHT22;32042;50.916;2.926;2023-05-10T12:08:53;18.20;99.90
46319;DHT22;32042;50.916;2.926;2023-05-10T12:11:20;18.20;99.90
46319;DHT22;32042;50.916;2.926;2023-05-10T12:13:49;18.20;99.90
46319;DHT22;32042;50.916;2.926;2023-05-10T12:16:23;18.20;99.90
46319;DHT22;32042;50.916;2.926;2023-05-10T12:18:54;18.00;99.90
46319;DHT22;32042;50.916;2.926;2023-05-10T12:21:21;17.80;99.90
46319;DHT22;32042;50.916;2.926;2023-05-10T12:23:52;17.80;99.90
46319;DHT22;32042;50.916;2.926;2023-05-10T12:26:20;17.70;99.90
46319;DHT22;32042;50.916;2.926;2023-05-10T12:28:47;17.70;99.90
46319;DHT22;32042;50.916;2.926;2023-05-10T12:31:12;17.70;99.90
46319;DHT22;32042;50.916;2.926;2023-05-10T12:33:42;17.80;99.90
46319;DHT22;32042;50.916;2.926;2023-05-10T12:36:09;17.90;99.90
46319;DHT22;32042;50.916;2.926;2023-05-10T12:38:43;17.90;99.90
46319;DHT22;32042;50.916;2.926;2023-05-10T12:41:10;17.90;99.90
46319;DHT22;32042;50.916;2.926;2023-05-10T12:43:37;18.00;99.90
46319;DHT22;32042;50.916;2.926;2023-05-10T12:48:37;18.20;99.90
46319;DHT22;32042;50.916;2.926;2023-05-10T12:51:04;18.40;99.90
46319;DHT22;32042;50.916;2.926;2023-05-10T12:53:30;18.50;99.90
46319;DHT22;32042;50.916;2.926;2023-05-10T12:55:57;18.70;99.90
46319;DHT22;32042;50.916;2.926;2023-05-10T12:58:23;18.50;99.90
46319;DHT22;32042;50.916;2.926;2023-05-10T13:00:49;18.50;99.90
46319;DHT22;32042;50.916;2.926;2023-05-10T13:03:17;18.50;99.90
46319;DHT22;32042;50.916;2.926;2023-05-10T13:05:43;18.60;99.90
46319;DHT22;32042;50.916;2.926;2023-05-10T13:08:08;18.80;99.90
46319;DHT22;32042;50.916;2.926;2023-05-10T13:13:00;19.10;99.90
46319;DHT22;32042;50.916;2.926;2023-05-10T13:15:26;19.30;99.90
46319;DHT22;32042;50.916;2.926;2023-05-10T13:17:53;19.20;99.90
46319;DHT22;32042;50.916;2.926;2023-05-10T13:20:20;19.20;99.90
46319;DHT22;32042;50.916;2.926;2023-05-10T13:22:46;19.20;99.90
46319;DHT22;32042;50.916;2.926;2023-05-10T13:25:12;19.20;99.90
46319;DHT22;32042;50.916;2.926;2023-05-10T13:27:40;19.20;99.90
46319;DHT22;32042;50.916;2.926;2023-05-10T13:30:09;19.10;99.90
46319;DHT22;32042;50.916;2.926;2023-05-10T13:32:37;19.10;99.90
46319;DHT22;32042;50.916;2.926;2023-05-10T13:35:03;19.10;99.90
46319;DHT22;32042;50.916;2.926;2023-05-10T13:37:30;19.00;99.90
46319;DHT22;32042;50.916;2.926;2023-05-10T13:39:56;18.90;99.90
46319;DHT22;32042;50.916;2.926;2023-05-10T13:42:24;18.80;99.90
46319;DHT22;32042;50.916;2.926;2023-05-10T13:44:50;18.70;99.90
46319;DHT22;32042;50.916;2.926;2023-05-10T13:47:16;18.80;99.90
46319;DHT22;32042;50.916;2.926;2023-05-10T13:49:42;19.00;99.90
46319;DHT22;32042;50.916;2.926;2023-05-10T13:52:08;19.30;99.90
46319;DHT22;32042;50.916;2.926;2023-05-10T13:54:36;19.50;99.90
46319;DHT22;32042;50.916;2.926;2023-05-10T13:57:02;19.70;99.90
46319;DHT22;32042;50.916;2.926;2023-05-10T13:59:28;19.80;99.90
46319;DHT22;32042;50.916;2.926;2023-05-10T14:01:54;19.70;99.90
46319;DHT22;32042;50.916;2.926;2023-05-10T14:04:20;19.80;99.90
46319;DHT22;32042;50.916;2.926;2023-05-10T14:06:46;19.70;99.90
46319;DHT22;32042;50.916;2.926;2023-05-10T14:09:11;19.70;99.90
46319;DHT22;32042;50.916;2.926;2023-05-10T14:11:38;19.60;99.90
46319;DHT22;32042;50.916;2.926;2023-05-10T14:14:07;19.80;99.90
46319;DHT22;32042;50.916;2.926;2023-05-10T14:16:33;19.90;99.90
46319;DHT22;32042;50.916;2.926;2023-05-10T14:18:58;20.70;99.90
46319;DHT22;32042;50.916;2.926;2023-05-10T14:21:24;20.10;99.90
46319;DHT22;32042;50.916;2.926;2023-05-10T14:23:50;20.10;99.90
46319;DHT22;32042;50.916;2.926;2023-05-10T14:26:15;20.10;99.90
46319;DHT22;32042;50.916;2.926;2023-05-10T14:28:42;20.00;99.90
46319;DHT22;32042;50.916;2.926;2023-05-10T14:31:07;19.90;99.90
46319;DHT22;32042;50.916;2.926;2023-05-10T14:33:33;19.80;99.90
46319;DHT22;32042;50.916;2.926;2023-05-10T14:35:59;19.70;99.90
46319;DHT22;32042;50.916;2.926;2023-05-10T14:38:25;19.50;99.90
46319;DHT22;32042;50.916;2.926;2023-05-10T14:40:52;19.40;99.90
46319;DHT22;32042;50.916;2.926;2023-05-10T14:43:17;19.40;99.90
46319;DHT22;32042;50.916;2.926;2023-05-10T14:45:43;19.40;99.90
46319;DHT22;32042;50.916;2.926;2023-05-10T14:48:10;19.40;99.90
46319;DHT22;32042;50.916;2.926;2023-05-10T14:50:40;19.10;99.90
46319;DHT22;32042;50.916;2.926;2023-05-10T14:53:06;18.80;99.90
46319;DHT22;32042;50.916;2.926;2023-05-10T14:55:32;18.60;99.90
46319;DHT22;32042;50.916;2.926;2023-05-10T14:57:58;18.50;99.90
46319;DHT22;32042;50.916;2.926;2023-05-10T15:00:24;18.50;99.90
46319;DHT22;32042;50.916;2.926;2023-05-10T15:02:49;18.40;99.90
46319;DHT22;32042;50.916;2.926;2023-05-10T15:05:15;18.50;99.90
46319;DHT22;32042;50.916;2.926;2023-05-10T15:07:41;18.50;99.90
46319;DHT22;32042;50.916;2.926;2023-05-10T15:10:09;18.30;99.90
46319;DHT22;32042;50.916;2.926;2023-05-10T15:12:36;18.40;99.90
46319;DHT22;32042;50.916;2.926;2023-05-10T15:15:01;18.50;99.90
46319;DHT22;32042;50.916;2.926;2023-05-10T15:17:27;18.60;99.90
46319;DHT22;32042;50.916;2.926;2023-05-10T15:19:53;18.80;99.90
46319;DHT22;32042;50.916;2.926;2023-05-10T15:22:19;19.20;99.90
46319;DHT22;32042;50.916;2.926;2023-05-10T15:24:44;19.40;99.90
46319;DHT22;32042;50.916;2.926;2023-05-10T15:27:10;19.60;99.90
46319;DHT22;32042;50.916;2.926;2023-05-10T15:29:36;19.70;99.90
46319;DHT22;32042;50.916;2.926;2023-05-10T15:32:02;19.70;99.90
46319;DHT22;32042;50.916;2.926;2023-05-10T15:34:28;19.70;99.90
46319;DHT22;32042;50.916;2.926;2023-05-10T15:36:54;19.70;99.90
46319;DHT22;32042;50.916;2.926;2023-05-10T15:39:19;19.70;99.90
46319;DHT22;32042;50.916;2.926;2023-05-10T15:41:45;19.90;99.90
46319;DHT22;32042;50.916;2.926;2023-05-10T15:44:12;20.00;99.90
46319;DHT22;32042;50.916;2.926;2023-05-10T15:46:38;19.80;99.90
46319;DHT22;32042;50.916;2.926;2023-05-10T15:49:03;19.70;99.90
46319;DHT22;32042;50.916;2.926;2023-05-10T15:51:30;19.70;99.90
46319;DHT22;32042;50.916;2.926;2023-05-10T15:53:58;19.80;99.90
46319;DHT22;32042;50.916;2.926;2023-05-10T15:56:24;19.60;99.90
46319;DHT22;32042;50.916;2.926;2023-05-10T15:58:49;19.50;99.90
46319;DHT22;32042;50.916;2.926;2023-05-10T16:01:15;19.40;99.90
46319;DHT22;32042;50.916;2.926;2023-05-10T16:03:41;19.40;99.90